createdAt,value
2022-08-11T00:00:15.680Z,1.35
2022-08-11T00:02:52.780Z,2.00
2022-08-11T00:05:22.798Z,1.45
2022-08-11T00:07:56.028Z,1.80
2022-08-11T00:10:27.413Z,1.10
2022-08-11T00:12:59.320Z,1.40
2022-08-11T00:15:37.887Z,1.27
2022-08-11T00:18:06.995Z,1.35
2022-08-11T00:20:40.886Z,1.55
2022-08-11T00:23:17.399Z,1.30
2022-08-11T00:25:49.974Z,1.02
2022-08-11T00:28:37.161Z,1.27
2022-08-11T00:31:08.635Z,1.60
2022-08-11T00:33:45.209Z,1.80
2022-08-11T00:36:22.019Z,1.42
2022-08-11T00:39:03.500Z,1.48
2022-08-11T00:41:41.375Z,1.23
2022-08-11T00:44:29.469Z,1.65
2022-08-11T00:47:17.791Z,1.33
2022-08-11T00:50:03.567Z,1.75
2022-08-11T00:53:00.433Z,1.58
2022-08-11T00:56:25.565Z,1.58
2022-08-11T00:59:49.402Z,1.45
2022-08-11T01:02:39.874Z,1.55
2022-08-11T01:05:39.638Z,1.20
2022-08-11T01:08:57.536Z,1.75
2022-08-11T01:12:14.405Z,1.33
2022-08-11T01:15:56.034Z,1.60
2022-08-11T01:19:22.871Z,1.30
2022-08-11T01:22:33.691Z,1.55
2022-08-11T01:25:57.435Z,1.42
2022-08-11T01:29:25.867Z,1.38
2022-08-11T01:32:45.118Z,1.70
2022-08-11T01:35:54.165Z,1.25
2022-08-11T01:39:24.788Z,1.67
2022-08-11T01:42:55.748Z,1.40
2022-08-11T01:45:37.749Z,1.58
2022-08-11T01:48:21.643Z,1.20
2022-08-11T01:51:18.468Z,2.33
2022-08-11T01:54:01.811Z,1.45
2022-08-11T01:56:45.512Z,1.58
2022-08-11T01:59:21.970Z,1.55
2022-08-11T02:02:47.647Z,1.30
2022-08-11T02:05:28.649Z,1.60
2022-08-11T02:08:10.968Z,1.40
2022-08-11T02:11:06.162Z,1.60
2022-08-11T02:13:43.446Z,1.27
2022-08-11T02:16:30.794Z,1.42
2022-08-11T02:22:24.092Z,1.33
2022-08-11T02:25:05.641Z,1.70
2022-08-11T02:27:44.405Z,1.35
2022-08-11T02:30:17.497Z,1.77
2022-08-11T02:33:10.410Z,1.58
2022-08-11T02:35:51.182Z,1.67
2022-08-11T02:38:32.108Z,1.73
2022-08-11T02:41:30.343Z,1.50
2022-08-11T02:44:28.135Z,1.58
2022-08-11T02:47:10.383Z,1.45
2022-08-11T02:50:02.507Z,1.67
2022-08-11T02:52:46.240Z,1.50
2022-08-11T02:55:48.047Z,1.52
2022-08-11T02:58:37.629Z,1.25
2022-08-11T03:01:17.506Z,1.60
2022-08-11T03:03:59.596Z,1.60
2022-08-11T03:06:39.814Z,1.30
2022-08-11T03:09:19.957Z,1.67
2022-08-11T03:12:27.598Z,1.90
2022-08-11T03:15:25.912Z,1.80
2022-08-11T03:18:13.569Z,1.35
2022-08-11T03:20:54.796Z,1.77
2022-08-11T03:23:34.858Z,1.52
2022-08-11T03:26:13.488Z,1.67
2022-08-11T03:28:54.328Z,1.52
2022-08-11T03:31:31.294Z,1.80
2022-08-11T03:34:07.524Z,1.70
2022-08-11T03:37:45.319Z,1.73
2022-08-11T03:40:54.532Z,1.90
2022-08-11T03:43:57.961Z,1.80
2022-08-11T03:46:52.333Z,1.88
2022-08-11T03:49:39.109Z,1.45
2022-08-11T03:52:21.152Z,1.80
2022-08-11T03:55:11.325Z,1.70
2022-08-11T03:58:19.734Z,1.65
2022-08-11T04:01:22.354Z,1.52
2022-08-11T04:04:30.272Z,1.42
2022-08-11T04:07:47.930Z,1.52
2022-08-11T04:11:15.481Z,1.52
2022-08-11T04:14:48.274Z,1.83
2022-08-11T04:18:08.776Z,1.48
2022-08-11T04:21:08.002Z,1.55
2022-08-11T04:24:36.677Z,1.33
2022-08-11T04:27:37.229Z,1.48
2022-08-11T04:30:13.138Z,1.77
2022-08-11T04:33:20.105Z,1.67
2022-08-11T04:36:11.122Z,1.67
2022-08-11T04:39:20.453Z,1.67
2022-08-11T04:43:19.209Z,1.45
2022-08-11T04:46:10.410Z,1.60
2022-08-11T04:49:37.127Z,2.03
2022-08-11T04:52:58.948Z,1.70
2022-08-11T04:56:26.012Z,1.52
2022-08-11T04:59:34.216Z,1.52
2022-08-11T05:03:10.513Z,2.05
2022-08-11T05:06:13.775Z,1.70
2022-08-11T05:09:14.558Z,1.85
2022-08-11T05:12:21.074Z,1.35
2022-08-11T05:15:10.668Z,1.60
2022-08-11T05:18:04.170Z,1.85
2022-08-11T05:21:05.046Z,1.60
2022-08-11T05:23:54.796Z,1.83
2022-08-11T05:26:46.736Z,1.77
2022-08-11T05:29:58.514Z,1.60
2022-08-11T05:32:56.852Z,2.10
2022-08-11T05:36:01.244Z,2.00
2022-08-11T05:38:46.769Z,2.50
2022-08-11T05:41:33.866Z,1.55
2022-08-11T05:44:23.535Z,2.28
2022-08-11T05:47:09.654Z,1.88
2022-08-11T05:49:56.653Z,1.83
2022-08-11T05:52:49.207Z,1.80
2022-08-11T05:56:02.108Z,1.65
2022-08-11T05:58:41.343Z,2.40
2022-08-11T06:01:14.008Z,2.25
2022-08-11T06:04:03.913Z,2.25
2022-08-11T06:06:32.589Z,1.80
2022-08-11T06:09:02.335Z,2.38
2022-08-11T06:11:43.185Z,1.77
2022-08-11T06:14:15.713Z,1.88
2022-08-11T06:16:50.300Z,1.92
2022-08-11T06:19:23.332Z,1.60
2022-08-11T06:21:53.170Z,2.10
2022-08-11T06:24:21.513Z,2.67
2022-08-11T06:27:11.922Z,2.85
2022-08-11T06:29:54.849Z,2.00
2022-08-11T06:32:29.866Z,2.05
2022-08-11T06:35:16.693Z,1.90
2022-08-11T06:38:04.179Z,1.90
2022-08-11T06:40:42.802Z,1.65
2022-08-11T06:43:20.571Z,1.58
2022-08-11T06:45:56.412Z,2.00
2022-08-11T06:48:27.241Z,1.65
2022-08-11T06:51:12.946Z,1.13
2022-08-11T06:54:02.844Z,1.42
2022-08-11T06:57:12.460Z,1.48
2022-08-11T07:00:01.332Z,1.55
2022-08-11T07:02:34.766Z,1.13
2022-08-11T07:05:13.443Z,1.50
2022-08-11T07:08:51.682Z,1.92
2022-08-11T07:12:18.545Z,1.45
2022-08-11T07:15:11.247Z,1.50
2022-08-11T07:17:49.784Z,1.50
2022-08-11T07:20:37.320Z,2.13
2022-08-11T07:23:28.470Z,1.35
2022-08-11T07:26:19.688Z,1.65
2022-08-11T07:28:57.852Z,1.40
2022-08-11T07:31:35.667Z,1.25
2022-08-11T07:34:18.660Z,1.77
2022-08-11T07:36:53.402Z,1.60
2022-08-11T07:39:24.219Z,1.58
2022-08-11T07:41:55.025Z,1.80
2022-08-11T07:44:34.297Z,2.20
2022-08-11T07:47:21.411Z,1.38
2022-08-11T07:50:12.327Z,1.77
2022-08-11T07:52:42.119Z,1.75
2022-08-11T07:55:16.759Z,1.52
2022-08-11T07:58:16.250Z,1.23
2022-08-11T08:01:10.643Z,1.48
2022-08-11T08:04:09.551Z,1.58
2022-08-11T08:06:57.399Z,1.67
2022-08-11T08:09:45.430Z,1.58
2022-08-11T08:12:33.549Z,1.88
2022-08-11T08:15:25.827Z,1.50
2022-08-11T08:18:09.350Z,1.65
2022-08-11T08:20:49.683Z,1.80
2022-08-11T08:23:32.734Z,1.88
2022-08-11T08:26:05.832Z,1.63
2022-08-11T08:28:46.414Z,1.77
2022-08-11T08:31:14.302Z,1.60
2022-08-11T08:33:43.815Z,1.42
2022-08-11T08:36:14.956Z,1.63
2022-08-11T08:38:53.969Z,1.90
2022-08-11T08:41:28.698Z,1.70
2022-08-11T08:44:27.774Z,1.83
2022-08-11T08:46:56.810Z,1.83
2022-08-11T08:49:31.772Z,1.98
2022-08-11T08:52:26.184Z,2.67
2022-08-11T08:54:59.224Z,1.85
2022-08-11T08:57:38.974Z,2.13
2022-08-11T09:00:12.504Z,2.00
2022-08-11T09:02:44.331Z,2.00
2022-08-11T09:05:13.742Z,2.00
2022-08-11T09:07:43.281Z,2.20
2022-08-11T09:10:12.179Z,1.85
2022-08-11T09:12:43.486Z,1.63
2022-08-11T09:15:19.240Z,1.73
2022-08-11T09:17:50.234Z,1.95
2022-08-11T09:20:23.745Z,1.83
2022-08-11T09:24:06.708Z,1.97
2022-08-11T09:26:21.127Z,1.27
2022-08-11T09:28:51.665Z,1.95
2022-08-11T09:31:22.644Z,2.08
2022-08-11T09:33:55.552Z,1.73
2022-08-11T09:36:42.169Z,2.10
2022-08-11T09:39:31.172Z,2.08
2022-08-11T09:42:03.492Z,1.70
2022-08-11T09:44:50.783Z,1.55
2022-08-11T09:47:25.500Z,2.25
2022-08-11T09:49:59.996Z,1.75
2022-08-11T09:52:31.424Z,1.60
2022-08-11T09:55:00.742Z,1.95
2022-08-11T09:57:46.275Z,1.55
2022-08-11T10:00:17.356Z,1.92
2022-08-11T10:02:49.316Z,1.70
2022-08-11T10:05:38.572Z,2.20
2022-08-11T10:08:10.194Z,1.90
2022-08-11T10:10:40.538Z,1.50
2022-08-11T10:14:30.157Z,2.20
2022-08-11T10:16:15.926Z,1.63
2022-08-11T10:18:53.186Z,1.60
2022-08-11T10:21:34.541Z,1.63
2022-08-11T10:24:21.714Z,2.28
2022-08-11T10:26:55.177Z,1.85
2022-08-11T10:29:49.794Z,1.83
2022-08-11T10:32:57.392Z,1.88
2022-08-11T10:35:28.146Z,1.92
2022-08-11T10:38:16.030Z,1.90
2022-08-11T10:41:10.577Z,2.03
2022-08-11T10:44:02.192Z,1.80
2022-08-11T10:46:47.011Z,2.10
2022-08-11T10:49:16.719Z,2.13
2022-08-11T10:52:03.865Z,1.77
2022-08-11T10:54:52.181Z,1.98
2022-08-11T10:57:38.719Z,2.40
2022-08-11T11:00:14.966Z,1.90
2022-08-11T11:02:44.227Z,2.40
2022-08-11T11:05:34.973Z,2.08
2022-08-11T11:08:27.332Z,2.10
2022-08-11T11:10:57.620Z,2.00
2022-08-11T11:13:55.081Z,2.22
2022-08-11T11:16:39.844Z,1.90
2022-08-11T11:19:12.143Z,2.30
2022-08-11T11:21:43.292Z,2.20
2022-08-11T11:24:41.171Z,1.77
2022-08-11T11:27:22.170Z,2.25
2022-08-11T11:30:04.189Z,1.77
2022-08-11T11:32:49.548Z,2.03
2022-08-11T11:35:31.717Z,2.10
2022-08-11T11:38:04.338Z,2.13
2022-08-11T11:40:34.381Z,1.83
2022-08-11T11:43:03.639Z,2.08
2022-08-11T11:45:32.481Z,1.90
2022-08-11T11:48:02.884Z,1.88
2022-08-11T11:50:35.368Z,1.90
2022-08-11T11:53:07.758Z,1.65
2022-08-11T11:55:37.175Z,1.80
2022-08-11T11:58:24.943Z,2.35
2022-08-11T12:01:12.210Z,2.00
2022-08-11T12:03:41.404Z,1.98
2022-08-11T12:06:14.005Z,1.70
2022-08-11T12:08:45.709Z,1.80
2022-08-11T12:11:32.679Z,2.03
2022-08-11T12:14:10.747Z,1.98
2022-08-11T12:16:44.293Z,2.03
2022-08-11T12:19:16.585Z,2.08
2022-08-11T12:22:00.905Z,2.05
2022-08-11T12:24:51.289Z,1.80
2022-08-11T12:27:25.489Z,2.10
2022-08-11T12:29:58.848Z,1.77
2022-08-11T12:32:31.252Z,2.08
2022-08-11T12:35:00.139Z,2.45
2022-08-11T12:37:32.787Z,1.92
2022-08-11T12:40:42.471Z,2.13
2022-08-11T12:43:40.905Z,2.20
2022-08-11T12:46:13.317Z,2.47
2022-08-11T12:49:05.944Z,1.90
2022-08-11T12:52:13.649Z,2.30
2022-08-11T12:54:57.061Z,2.10
2022-08-11T12:57:50.591Z,1.95
2022-08-11T13:00:39.270Z,1.70
2022-08-11T13:03:28.687Z,2.17
2022-08-11T13:05:59.409Z,1.90
2022-08-11T13:08:30.342Z,2.00
2022-08-11T13:11:19.689Z,2.30
2022-08-11T13:13:57.141Z,2.17
2022-08-11T13:16:31.490Z,1.75
2022-08-11T13:19:02.245Z,1.85
2022-08-11T13:21:31.401Z,1.83
2022-08-11T13:24:03.590Z,2.05
2022-08-11T13:26:48.575Z,2.05
2022-08-11T13:29:23.335Z,1.75
2022-08-11T13:31:53.274Z,2.30
2022-08-11T13:34:26.647Z,2.08
2022-08-11T13:36:58.071Z,2.10
2022-08-11T13:39:30.565Z,2.22
2022-08-11T13:42:01.130Z,2.17
2022-08-11T13:44:34.202Z,2.08
2022-08-11T13:47:05.653Z,2.30
2022-08-11T13:49:39.905Z,2.20
2022-08-11T13:52:14.597Z,2.17
2022-08-11T13:54:44.629Z,1.80
2022-08-11T13:58:08.834Z,2.08
2022-08-11T14:00:25.043Z,1.90
2022-08-11T14:02:58.571Z,2.10
2022-08-11T14:05:32.640Z,2.20
2022-08-11T14:08:04.689Z,2.10
2022-08-11T14:10:36.657Z,2.13
2022-08-11T14:13:28.940Z,2.20
2022-08-11T14:16:20.580Z,2.25
2022-08-11T14:18:54.650Z,2.00
2022-08-11T14:21:43.294Z,2.00
2022-08-11T14:24:13.118Z,2.00
2022-08-11T14:26:44.202Z,2.08
2022-08-11T14:29:16.115Z,2.28
2022-08-11T14:31:50.768Z,2.20
2022-08-11T14:34:22.042Z,2.22
2022-08-11T14:36:54.114Z,2.35
2022-08-11T14:39:27.528Z,2.15
2022-08-11T14:42:16.428Z,2.10
2022-08-11T14:45:05.340Z,2.15
2022-08-11T14:47:38.180Z,2.40
2022-08-11T14:50:13.949Z,2.13
2022-08-11T14:52:52.692Z,2.30
2022-08-11T14:55:41.149Z,2.30
2022-08-11T14:58:12.303Z,2.17
2022-08-11T15:00:43.266Z,2.10
2022-08-11T15:03:15.267Z,2.30
2022-08-11T15:05:57.658Z,2.25
2022-08-11T15:08:48.184Z,2.20
2022-08-11T15:11:38.114Z,2.35
2022-08-11T15:14:09.222Z,2.15
2022-08-11T15:16:58.626Z,2.22
2022-08-11T15:19:40.262Z,2.30
2022-08-11T15:22:28.732Z,2.45
2022-08-11T15:24:59.650Z,2.10
2022-08-11T15:27:49.292Z,2.60
2022-08-11T15:30:35.722Z,2.40
2022-08-11T15:33:29.652Z,2.35
2022-08-11T15:36:20.155Z,2.30
2022-08-11T15:38:55.765Z,2.00
2022-08-11T15:41:56.439Z,2.47
2022-08-11T15:45:05.720Z,2.42
2022-08-11T15:47:43.560Z,1.98
2022-08-11T15:50:19.694Z,2.08
2022-08-11T15:55:26.678Z,2.20
2022-08-11T15:58:14.372Z,2.28
2022-08-11T16:01:08.709Z,2.30
2022-08-11T16:04:07.223Z,2.05
2022-08-11T16:06:44.001Z,2.03
2022-08-11T16:09:25.864Z,2.28
2022-08-11T16:12:01.810Z,2.25
2022-08-11T16:14:51.727Z,2.10
2022-08-11T16:17:24.890Z,1.95
2022-08-11T16:19:57.522Z,2.38
2022-08-11T16:22:36.126Z,2.08
2022-08-11T16:27:02.759Z,2.38
2022-08-11T16:28:05.205Z,2.10
2022-08-11T16:30:35.851Z,2.30
2022-08-11T16:33:47.864Z,2.13
2022-08-11T16:36:13.720Z,2.15
2022-08-11T16:38:43.936Z,1.95
2022-08-11T16:41:39.327Z,2.10
2022-08-11T16:44:36.958Z,2.42
2022-08-11T16:47:08.748Z,1.95
2022-08-11T16:49:42.898Z,2.15
2022-08-11T16:52:12.889Z,1.95
2022-08-11T16:54:44.621Z,2.40
2022-08-11T16:57:36.970Z,2.08
2022-08-11T17:00:12.634Z,2.15
2022-08-11T17:03:04.226Z,1.95
2022-08-11T17:05:55.130Z,2.20
2022-08-11T17:08:54.229Z,2.10
2022-08-11T17:11:49.546Z,2.22
2022-08-11T17:14:35.675Z,2.20
2022-08-11T17:17:07.182Z,1.92
2022-08-11T17:20:42.362Z,2.25
2022-08-11T17:22:49.506Z,2.00
2022-08-11T17:25:20.258Z,2.50
2022-08-11T17:27:51.547Z,2.33
2022-08-11T17:30:21.594Z,1.92
2022-08-11T17:33:11.154Z,2.05
2022-08-11T17:35:44.482Z,2.10
2022-08-11T17:38:17.484Z,2.13
2022-08-11T17:41:04.305Z,2.00
2022-08-11T17:43:51.522Z,1.98
2022-08-11T17:46:39.348Z,2.20
2022-08-11T17:49:11.175Z,2.00
2022-08-11T17:52:01.135Z,2.17
2022-08-11T17:54:47.627Z,2.13
2022-08-11T17:57:35.553Z,2.40
2022-08-11T18:00:07.045Z,1.80
2022-08-11T18:02:58.244Z,2.25
2022-08-11T18:05:32.181Z,2.28
2022-08-11T18:08:21.326Z,2.13
2022-08-11T18:11:08.025Z,2.22
2022-08-11T18:13:56.709Z,2.22
2022-08-11T18:16:42.639Z,2.20
2022-08-11T18:19:30.691Z,2.10
2022-08-11T18:22:24.184Z,2.45
2022-08-11T18:25:16.746Z,1.90
2022-08-11T18:28:06.506Z,2.50
2022-08-11T18:31:03.864Z,2.67
2022-08-11T18:34:08.982Z,2.90
2022-08-11T18:37:01.076Z,2.38
2022-08-11T18:39:56.179Z,2.22
2022-08-11T18:42:44.229Z,2.40
2022-08-11T18:45:45.337Z,2.20
2022-08-11T18:48:39.916Z,2.00
2022-08-11T18:51:30.484Z,2.35
2022-08-11T18:54:28.602Z,2.13
2022-08-11T18:57:19.625Z,2.10
2022-08-11T19:00:08.927Z,2.38
2022-08-11T19:02:58.049Z,2.22
2022-08-11T19:06:32.421Z,1.98
2022-08-11T19:09:05.354Z,2.28
2022-08-11T19:11:55.228Z,2.17
2022-08-11T19:14:49.568Z,2.08
2022-08-11T19:17:46.035Z,2.27
2022-08-11T19:20:36.318Z,1.92
2022-08-11T19:23:25.566Z,2.50
2022-08-11T19:26:12.960Z,2.28
2022-08-11T19:29:03.090Z,2.63
2022-08-11T19:31:49.467Z,1.88
2022-08-11T19:34:38.594Z,2.30
2022-08-11T19:37:28.151Z,2.40
2022-08-11T19:40:20.446Z,2.25
2022-08-11T19:43:18.571Z,2.20
2022-08-11T19:46:17.020Z,2.03
2022-08-11T19:49:06.386Z,1.88
2022-08-11T19:51:54.652Z,2.08
2022-08-11T19:54:44.506Z,2.20
2022-08-11T19:57:35.890Z,2.40
2022-08-11T20:00:30.609Z,2.35
2022-08-11T20:03:19.459Z,2.15
2022-08-11T20:06:07.272Z,2.42
2022-08-11T20:08:58.528Z,2.60
2022-08-11T20:11:48.898Z,2.50
2022-08-11T20:14:38.333Z,2.60
2022-08-11T20:17:27.748Z,2.40
2022-08-11T20:20:20.362Z,2.30
2022-08-11T20:23:10.551Z,2.50
2022-08-11T20:26:08.389Z,2.40
2022-08-11T20:29:02.804Z,2.25
2022-08-11T20:31:49.961Z,2.45
2022-08-11T20:34:37.097Z,2.35
2022-08-11T20:37:26.268Z,2.60
2022-08-11T20:40:15.428Z,2.20
2022-08-11T20:43:02.206Z,2.40
2022-08-11T20:45:52.176Z,2.42
2022-08-11T20:48:45.646Z,1.90
2022-08-11T20:51:38.588Z,2.00
2022-08-11T20:54:41.949Z,2.28
2022-08-11T20:57:57.791Z,2.50
2022-08-11T21:00:39.655Z,2.35
2022-08-11T21:03:35.777Z,2.42
2022-08-11T21:06:31.511Z,2.17
2022-08-11T21:09:23.959Z,2.50
2022-08-11T21:12:34.980Z,2.15
2022-08-11T21:15:39.223Z,2.42
2022-08-11T21:18:35.357Z,2.45
2022-08-11T21:21:26.510Z,2.42
2022-08-11T21:24:16.722Z,2.30
2022-08-11T21:27:06.482Z,2.70
2022-08-11T21:29:56.183Z,2.38
2022-08-11T21:32:44.458Z,2.88
2022-08-11T21:35:31.066Z,2.70
2022-08-11T21:38:18.475Z,2.28
2022-08-11T21:41:09.180Z,2.63
2022-08-11T21:43:56.614Z,2.80
2022-08-11T21:46:46.835Z,2.67
2022-08-11T21:49:33.542Z,2.80
2022-08-11T21:52:18.978Z,2.15
2022-08-11T21:55:04.957Z,2.45
2022-08-11T21:57:51.377Z,2.70
2022-08-11T22:00:37.061Z,2.72
2022-08-11T22:03:24.822Z,2.45
2022-08-11T22:06:14.074Z,2.65
2022-08-11T22:09:01.828Z,2.45
2022-08-11T22:11:47.257Z,2.35
2022-08-11T22:14:32.949Z,2.30
2022-08-11T22:17:18.436Z,2.47
2022-08-11T22:20:06.210Z,2.30
2022-08-11T22:22:53.978Z,2.30
2022-08-11T22:25:51.634Z,2.58
2022-08-11T22:28:40.699Z,2.30
2022-08-11T22:31:30.037Z,2.20
2022-08-11T22:34:15.967Z,2.63
2022-08-11T22:37:07.081Z,2.45
2022-08-11T22:40:02.645Z,2.60
2022-08-11T22:42:50.007Z,2.22
2022-08-11T22:45:36.131Z,2.60
2022-08-11T22:48:24.500Z,2.67
2022-08-11T22:51:10.942Z,2.33
2022-08-11T22:53:59.294Z,2.30
2022-08-11T22:56:46.632Z,2.05
2022-08-11T22:59:34.937Z,2.40
2022-08-11T23:02:21.274Z,2.13
2022-08-11T23:05:08.983Z,2.65
2022-08-11T23:07:55.751Z,2.58
2022-08-11T23:10:44.832Z,2.38
2022-08-11T23:13:33.184Z,2.55
2022-08-11T23:16:20.398Z,2.38
2022-08-11T23:19:07.325Z,2.50
2022-08-11T23:21:53.713Z,2.30
2022-08-11T23:24:40.342Z,2.40
2022-08-11T23:27:28.724Z,2.25
2022-08-11T23:30:18.687Z,2.30
2022-08-11T23:33:09.838Z,2.38
2022-08-11T23:36:04.405Z,2.80
2022-08-11T23:38:51.912Z,2.53
2022-08-11T23:41:38.853Z,2.63
2022-08-11T23:44:27.861Z,2.58
2022-08-11T23:47:18.159Z,2.10
2022-08-11T23:50:05.850Z,2.45
2022-08-11T23:52:52.901Z,2.58
2022-08-11T23:55:39.219Z,1.90
2022-08-11T23:58:25.089Z,2.35
